Time;durP1;ratioP1;P1;durP2;ratioP2;P2;SDS_P1;SDS_P2;PMS_P1;PMS_P2;Temp;Humidity;BMP_temperature;BMP_pressure;BME280_temperature;BME280_humidity;BME280_pressure;Samples;Min_cycle;Max_cycle;Signal;HPM_P1;HPM_P2
2022/12/29 00:01:47;;;;;;;5.67;4.33;;;6.90;99.90;6.50;99490;;;;592201;242;24063;-72
2022/12/29 00:04:19;;;;;;;4.90;4.37;;;6.90;99.90;6.40;99489;;;;575930;248;24123;-73
2022/12/29 00:06:49;;;;;;;4.53;4.13;;;6.90;99.90;6.40;99484;;;;565090;251;24146;-77
2022/12/29 00:09:15;;;;;;;7.27;5.00;;;6.80;99.90;6.40;99482;;;;594875;237;25146;-74
2022/12/29 00:11:46;;;;;;;6.07;4.63;;;6.90;99.90;6.40;99476;;;;596195;240;24054;-73
2022/12/29 00:16:57;;;;;;;6.23;4.10;;;6.90;99.90;6.40;99471;;;;595937;241;24047;-74
2022/12/29 00:36:13;;;;;;;4.20;3.40;;;6.80;99.90;6.40;99463;;;;586794;241;24099;-73
2022/12/29 00:44:13;;;;;;;3.73;3.17;;;6.80;99.90;6.40;99463;;;;585718;241;24049;-75
2022/12/29 00:46:41;;;;;;;4.40;3.13;;;6.80;99.90;6.40;99464;;;;585794;241;25098;-72
2022/12/29 00:51:54;;;;;;;3.60;3.30;;;6.80;99.90;6.30;99468;;;;586303;240;24059;-72
2022/12/29 00:54:25;;;;;;;2.67;2.47;;;6.80;99.90;6.30;99454;;;;586890;240;24091;-72
2022/12/29 00:56:53;;;;;;;4.13;3.00;;;6.80;99.90;6.30;99450;;;;588721;237;24049;-75
2022/12/29 00:59:18;;;;;;;4.03;2.53;;;6.80;99.90;6.30;99447;;;;594506;237;24140;-73
2022/12/29 01:01:50;;;;;;;2.43;2.33;;;6.80;99.90;6.30;99449;;;;599657;238;24054;-73
2022/12/29 01:04:15;;;;;;;2.30;2.17;;;6.70;99.90;6.30;99447;;;;591783;238;24022;-72
2022/12/29 01:06:42;;;;;;;2.47;2.27;;;6.70;99.90;6.30;99441;;;;595237;237;24032;-73
2022/12/29 01:15:37;;;;;;;2.73;2.00;;;6.70;99.90;6.20;99434;;;;599159;238;24018;-73
2022/12/29 01:18:05;;;;;;;1.90;1.80;;;6.70;99.90;6.20;99421;;;;603593;238;24034;-74
2022/12/29 01:20:33;;;;;;;2.10;2.00;;;6.70;99.90;6.20;99426;;;;581482;243;25134;-73
2022/12/29 01:23:01;;;;;;;2.30;2.10;;;6.70;99.90;6.20;99428;;;;591465;240;24105;-79
2022/12/29 01:25:29;;;;;;;2.03;1.93;;;6.60;99.90;6.20;99430;;;;594965;237;24040;-77
2022/12/29 01:27:57;;;;;;;1.93;1.70;;;6.70;99.90;6.20;99431;;;;594796;238;24068;-75
2022/12/29 01:30:25;;;;;;;2.17;2.00;;;6.60;99.90;6.20;99425;;;;594941;237;24042;-73
2022/12/29 01:32:53;;;;;;;1.70;1.60;;;6.60;99.90;6.20;99417;;;;603712;237;25094;-73
2022/12/29 01:35:21;;;;;;;1.97;1.87;;;6.60;99.90;6.20;99421;;;;602093;236;24059;-73
2022/12/29 01:37:49;;;;;;;1.80;1.70;;;6.60;99.90;6.10;99420;;;;596222;238;24037;-75
2022/12/29 01:40:17;;;;;;;2.47;2.30;;;6.60;99.90;6.10;99421;;;;595920;238;24074;-75
2022/12/29 01:42:45;;;;;;;1.87;1.70;;;6.60;99.90;6.10;99429;;;;596294;238;24020;-75
2022/12/29 01:45:16;;;;;;;2.27;2.07;;;6.60;99.90;6.10;99419;;;;605366;237;24018;-73
2022/12/29 01:47:53;;;;;;;2.13;1.93;;;6.60;99.90;6.10;99423;;;;594442;238;24041;-73
2022/12/29 01:50:30;;;;;;;2.00;1.73;;;6.60;99.90;6.10;99425;;;;601419;238;24060;-73
2022/12/29 01:53:10;;;;;;;2.57;2.37;;;6.60;99.90;6.10;99415;;;;602831;238;24025;-74
2022/12/29 01:55:38;;;;;;;1.93;1.83;;;6.50;99.90;6.10;99413;;;;602666;238;24049;-76
2022/12/29 01:58:09;;;;;;;1.83;1.73;;;6.60;99.90;6.10;99413;;;;604534;237;24077;-75
2022/12/29 02:00:34;;;;;;;1.97;1.87;;;6.60;99.90;6.10;99411;;;;593850;238;24057;-73
2022/12/29 02:03:06;;;;;;;2.87;1.70;;;6.50;99.90;6.00;99408;;;;594782;238;24037;-72
2022/12/29 02:05:33;;;;;;;1.97;1.87;;;6.50;99.90;6.00;99406;;;;581919;243;24083;-73
2022/12/29 02:08:00;;;;;;;2.10;1.87;;;6.50;99.90;6.00;99406;;;;604130;234;24042;-74
2022/12/29 02:10:28;;;;;;;2.30;2.10;;;6.50;99.90;6.00;99405;;;;592364;238;24039;-75
2022/12/29 02:12:56;;;;;;;1.83;1.63;;;6.40;99.90;6.00;99400;;;;604397;237;24029;-77
2022/12/29 02:15:42;;;;;;;1.90;1.80;;;6.40;99.90;5.90;99405;;;;594869;238;24032;-75
2022/12/29 02:18:25;;;;;;;1.37;1.27;;;6.40;99.90;5.90;99406;;;;601680;238;24049;-79
2022/12/29 02:21:20;;;;;;;1.50;1.43;;;6.40;99.90;5.90;99407;;;;593500;238;24027;-76
2022/12/29 02:24:31;;;;;;;1.70;1.60;;;6.40;99.90;5.90;99400;;;;599273;237;24017;-73
2022/12/29 02:27:29;;;;;;;1.57;1.47;;;6.40;99.90;5.90;99394;;;;594184;237;24041;-75
2022/12/29 02:30:03;;;;;;;1.57;1.47;;;6.40;99.90;5.90;99392;;;;593908;238;24037;-73
2022/12/29 02:32:55;;;;;;;1.30;1.30;;;6.40;99.90;5.90;99393;;;;600558;238;24055;-73
2022/12/29 02:35:26;;;;;;;2.17;2.08;;;6.40;99.90;5.90;99391;;;;585392;243;35102;-75
2022/12/29 02:38:03;;;;;;;2.20;2.10;;;6.40;99.90;5.90;99385;;;;598850;237;24030;-74
2022/12/29 02:40:49;;;;;;;2.07;1.60;;;6.40;99.90;5.90;99387;;;;604592;238;24054;-74
2022/12/29 02:43:28;;;;;;;1.60;1.50;;;6.40;99.90;5.90;99387;;;;593833;238;24136;-73
2022/12/29 02:45:59;;;;;;;1.90;1.80;;;6.40;99.90;5.90;99383;;;;599416;237;24079;-77
2022/12/29 02:48:32;;;;;;;1.60;1.50;;;6.40;99.90;5.90;99378;;;;601191;238;24085;-73
2022/12/29 02:51:21;;;;;;;2.65;2.45;;;6.40;99.90;5.90;99380;;;;595480;238;34976;-75
2022/12/29 02:56:35;;;;;;;1.80;1.70;;;6.40;99.90;5.90;99381;;;;605466;237;24040;-75
2022/12/29 02:59:03;;;;;;;3.73;1.40;;;6.40;99.90;5.90;99379;;;;595342;238;24009;-76
2022/12/29 03:01:39;;;;;;;1.73;1.63;;;6.40;99.90;5.90;99365;;;;595887;238;24033;-78
2022/12/29 03:04:31;;;;;;;1.83;1.73;;;6.40;99.90;5.90;99362;;;;602805;238;24048;-79
2022/12/29 03:07:05;;;;;;;1.63;1.53;;;6.40;99.90;5.90;99357;;;;601070;238;24075;-73
2022/12/29 03:09:44;;;;;;;1.50;1.40;;;6.40;99.90;5.90;99356;;;;600422;238;24105;-75
2022/12/29 03:12:24;;;;;;;1.33;1.33;;;6.30;99.90;5.90;99362;;;;595088;236;24079;-76
2022/12/29 03:17:48;;;;;;;1.63;1.53;;;6.30;99.90;5.80;99370;;;;599491;237;25163;-74
2022/12/29 03:20:16;;;;;;;3.00;2.80;;;6.30;99.90;5.80;99364;;;;584958;238;34888;-76
2022/12/29 03:22:43;;;;;;;2.90;2.70;;;6.20;99.90;5.80;99364;;;;604344;236;24020;-76
2022/12/29 03:25:23;;;;;;;2.50;2.30;;;6.20;99.90;5.80;99348;;;;594234;237;24106;-77
2022/12/29 03:27:54;;;;;;;2.50;2.30;;;6.30;99.90;5.70;99348;;;;594004;238;24051;-77
2022/12/29 03:30:22;;;;;;;4.83;2.07;;;6.20;99.90;5.70;99341;;;;585804;238;24087;-77
2022/12/29 03:32:56;;;;;;;2.57;2.37;;;6.20;99.90;5.70;99344;;;;591513;243;24073;-78
2022/12/29 03:35:24;;;;;;;1.97;1.87;;;6.20;99.90;5.70;99339;;;;601018;238;24035;-78
2022/12/29 03:38:01;;;;;;;2.27;2.17;;;6.20;99.90;5.70;99341;;;;594599;238;24034;-78
2022/12/29 03:40:29;;;;;;;2.63;2.43;;;6.20;99.90;5.70;99338;;;;593353;238;24050;-78
2022/12/29 03:43:01;;;;;;;2.23;2.13;;;6.30;99.90;5.80;99345;;;;604632;238;24046;-77
2022/12/29 03:45:25;;;;;;;2.23;2.13;;;6.20;99.90;5.80;99338;;;;603578;238;24059;-79
2022/12/29 03:47:53;;;;;;;4.20;3.90;;;6.30;99.90;5.80;99342;;;;590106;237;34872;-78
2022/12/29 03:50:21;;;;;;;3.33;2.90;;;6.30;99.90;5.80;99329;;;;594886;237;24091;-77
2022/12/29 03:52:49;;;;;;;4.27;3.97;;;6.30;99.90;5.80;99326;;;;595376;237;24359;-77
2022/12/29 03:55:18;;;;;;;5.20;4.00;;;6.20;99.90;5.70;99325;;;;595344;238;24021;-77
2022/12/29 03:57:45;;;;;;;3.57;3.27;;;6.20;99.90;5.70;99321;;;;595255;237;24014;-80
2022/12/29 04:00:13;;;;;;;4.23;3.37;;;6.20;99.90;5.70;99322;;;;606295;237;24015;-77
2022/12/29 04:02:41;;;;;;;3.87;3.10;;;6.20;99.90;5.70;99327;;;;601985;238;24010;-78
2022/12/29 04:05:10;;;;;;;3.87;3.57;;;6.20;99.90;5.70;99328;;;;596193;237;25063;-78
2022/12/29 04:07:38;;;;;;;4.93;4.37;;;6.20;99.90;5.70;99326;;;;596149;237;24034;-76
2022/12/29 04:10:06;;;;;;;6.80;6.10;;;6.20;99.90;5.70;99315;;;;570825;248;35454;-79
2022/12/29 04:12:34;;;;;;;8.05;7.25;;;6.20;99.90;5.80;99319;;;;581235;238;34988;-79
2022/12/29 04:15:02;;;;;;;6.37;4.87;;;6.30;99.90;5.80;99324;;;;571224;247;25131;-77
2022/12/29 04:17:29;;;;;;;5.90;5.00;;;6.30;99.90;5.80;99315;;;;580124;247;24102;-79
2022/12/29 04:20:59;;;;;;;4.87;4.37;;;6.30;99.90;5.70;99318;;;;591807;243;24053;-78
2022/12/29 04:22:25;;;;;;;7.20;6.60;;;6.30;99.90;5.80;99310;;;;589692;237;35048;-78
2022/12/29 04:24:53;;;;;;;9.15;7.35;;;6.30;99.90;5.80;99309;;;;590215;237;34979;-78
2022/12/29 04:27:21;;;;;;;8.23;7.43;;;6.30;99.90;5.80;99312;;;;589779;237;35025;-79
2022/12/29 04:29:49;;;;;;;6.53;5.77;;;6.30;99.90;5.80;99313;;;;595310;238;24026;-73
2022/12/29 04:32:17;;;;;;;8.27;5.83;;;6.30;99.90;5.80;99305;;;;595223;238;24021;-74
2022/12/29 04:34:45;;;;;;;5.77;5.07;;;6.30;99.90;5.80;99298;;;;582007;243;24110;-73
2022/12/29 04:37:13;;;;;;;6.47;4.63;;;6.30;99.90;5.80;99306;;;;590346;243;24049;-73
2022/12/29 04:39:41;;;;;;;5.57;3.90;;;6.30;99.90;5.80;99290;;;;573545;247;24168;-78
2022/12/29 04:42:09;;;;;;;6.53;5.23;;;6.30;99.90;5.80;99292;;;;579784;247;24079;-74
2022/12/29 04:44:38;;;;;;;6.53;5.30;;;6.30;99.90;5.80;99293;;;;604405;238;24040;-74
2022/12/29 04:47:06;;;;;;;6.00;4.40;;;6.30;99.90;5.80;99295;;;;570964;248;24102;-76
2022/12/29 04:49:34;;;;;;;5.97;5.00;;;6.30;99.90;5.80;99291;;;;604739;238;24108;-75
2022/12/29 04:52:02;;;;;;;5.73;5.03;;;6.30;99.90;5.80;99291;;;;594751;238;24015;-78
2022/12/29 04:54:30;;;;;;;5.43;4.80;;;6.30;99.90;5.80;99286;;;;581570;243;24049;-74
2022/12/29 04:56:58;;;;;;;6.37;4.67;;;6.30;99.90;5.80;99271;;;;590478;242;25157;-73
2022/12/29 04:59:27;;;;;;;5.77;4.27;;;6.30;99.90;5.80;99276;;;;575843;245;24102;-75
2022/12/29 05:01:55;;;;;;;5.90;4.60;;;6.30;99.90;5.80;99276;;;;579211;247;24078;-77
2022/12/29 05:04:23;;;;;;;7.37;5.30;;;6.30;99.90;5.90;99290;;;;590525;242;24047;-78
2022/12/29 05:06:50;;;;;;;4.77;4.33;;;6.40;99.90;5.90;99294;;;;575445;245;24077;-75
2022/12/29 05:09:18;;;;;;;5.70;5.03;;;6.40;99.90;5.90;99282;;;;578765;243;24118;-76
2022/12/29 05:11:47;;;;;;;6.67;4.60;;;6.40;99.90;5.90;99281;;;;592131;240;24075;-75
2022/12/29 05:14:15;;;;;;;5.00;4.43;;;6.40;99.90;5.90;99277;;;;576821;247;24101;-77
2022/12/29 05:16:44;;;;;;;5.27;4.43;;;6.40;99.90;5.90;99278;;;;580081;247;24097;-75
2022/12/29 05:19:12;;;;;;;8.63;4.93;;;6.40;99.90;5.90;99272;;;;591219;241;24054;-78
2022/12/29 05:21:39;;;;;;;6.23;5.13;;;6.40;99.90;6.00;99263;;;;576392;245;24065;-74
2022/12/29 05:24:07;;;;;;;5.90;4.50;;;6.50;99.90;6.00;99266;;;;572975;247;24136;-77
2022/12/29 05:26:35;;;;;;;9.93;4.83;;;6.50;99.90;6.00;99263;;;;595094;241;24049;-79
2022/12/29 05:29:04;;;;;;;5.90;4.53;;;6.50;99.90;6.00;99247;;;;594985;242;24057;-75
2022/12/29 05:31:35;;;;;;;5.60;4.60;;;6.40;99.90;6.00;99253;;;;595001;242;24048;-75
2022/12/29 05:34:00;;;;;;;8.07;5.50;;;6.50;99.90;6.00;99245;;;;594430;241;24080;-77
2022/12/29 05:36:28;;;;;;;7.10;5.27;;;6.50;99.90;6.00;99235;;;;594394;241;24056;-80
2022/12/29 05:38:56;;;;;;;7.13;5.13;;;6.50;99.90;6.00;99244;;;;571687;251;24180;-74
2022/12/29 05:41:24;;;;;;;7.43;5.03;;;6.50;99.90;6.00;99243;;;;571749;251;24126;-75
2022/12/29 05:43:52;;;;;;;6.43;5.13;;;6.50;99.90;5.90;99241;;;;590471;241;24057;-79
2022/12/29 05:46:20;;;;;;;5.57;4.90;;;6.40;99.90;5.90;99246;;;;581426;247;24083;-74
2022/12/29 05:48:48;;;;;;;9.20;4.77;;;6.40;99.90;5.90;99244;;;;582214;246;24104;-74
2022/12/29 05:54:57;;;;;;;6.97;4.73;;;6.40;99.90;5.90;99244;;;;594426;242;24104;-73
2022/12/29 05:57:25;;;;;;;8.97;5.50;;;6.40;99.90;5.90;99234;;;;582468;246;24086;-73
2022/12/29 05:59:52;;;;;;;8.03;4.90;;;6.40;99.90;5.90;99233;;;;581416;247;24080;-75
2022/12/29 06:02:20;;;;;;;7.13;5.50;;;6.40;99.90;5.90;99232;;;;582277;246;24060;-79
2022/12/29 06:04:49;;;;;;;9.47;7.13;;;6.40;99.90;5.90;99225;;;;568651;247;35282;-76
2022/12/29 06:07:17;;;;;;;10.88;8.13;;;6.40;99.90;6.00;99227;;;;577466;243;35270;-72
2022/12/29 06:09:45;;;;;;;8.70;7.80;;;6.50;99.90;6.00;99217;;;;577552;246;38229;-75
2022/12/29 06:12:15;;;;;;;6.87;6.17;;;6.50;99.90;6.00;99206;;;;581388;247;24078;-74
2022/12/29 06:14:41;;;;;;;5.27;4.77;;;6.50;99.90;6.00;99197;;;;572424;247;24126;-76
2022/12/29 06:17:09;;;;;;;6.30;5.70;;;6.50;99.90;6.00;99192;;;;582076;247;24072;-74
2022/12/29 06:19:37;;;;;;;6.87;5.20;;;6.50;99.90;6.00;99192;;;;582088;247;24089;-74
2022/12/29 06:22:07;;;;;;;8.40;5.10;;;6.50;99.90;6.00;99198;;;;582504;245;24113;-78
2022/12/29 06:24:33;;;;;;;6.73;4.87;;;6.50;99.90;6.00;99188;;;;583197;246;24083;-74
2022/12/29 06:27:02;;;;;;;8.30;7.17;;;6.50;99.90;6.00;99195;;;;577883;246;35476;-75
2022/12/29 06:29:30;;;;;;;8.63;7.78;;;6.50;99.90;6.00;99191;;;;577858;246;35343;-74
2022/12/29 06:31:58;;;;;;;8.10;7.30;;;6.50;99.90;6.00;99194;;;;577592;246;35279;-79
2022/12/29 06:34:26;;;;;;;7.80;5.60;;;6.50;99.90;6.00;99189;;;;582599;247;24099;-79
2022/12/29 06:36:54;;;;;;;10.97;6.53;;;6.50;99.90;6.00;99197;;;;582369;247;24141;-79
2022/12/29 06:39:26;;;;;;;8.17;5.33;;;6.50;99.90;6.10;99197;;;;582523;246;24098;-78
2022/12/29 06:41:50;;;;;;;5.30;4.77;;;6.60;99.90;6.10;99197;;;;572400;247;24152;-75
2022/12/29 06:44:18;;;;;;;7.53;5.47;;;6.60;99.90;6.10;99187;;;;572990;247;24098;-75
2022/12/29 06:46:46;;;;;;;9.77;7.27;;;6.60;99.90;6.10;99196;;;;581688;246;24113;-73
2022/12/29 06:49:14;;;;;;;15.23;9.77;;;6.60;99.90;6.20;99195;;;;570932;243;24085;-77
2022/12/29 06:51:42;;;;;;;9.73;5.83;;;6.60;99.90;6.20;99199;;;;577396;246;24084;-78
2022/12/29 06:54:09;;;;;;;7.47;5.10;;;6.60;99.90;6.10;99200;;;;568898;249;24121;-76
2022/12/29 06:56:37;;;;;;;5.83;4.50;;;6.70;99.90;6.10;99199;;;;568569;250;24137;-78
2022/12/29 06:59:05;;;;;;;6.83;4.57;;;6.60;99.90;6.20;99190;;;;583899;243;24083;-79
2022/12/29 07:01:35;;;;;;;9.17;5.27;;;6.60;99.90;6.20;99192;;;;572810;246;24081;-75
2022/12/29 07:04:04;;;;;;;7.53;5.10;;;6.60;99.90;6.20;99194;;;;583528;246;24091;-74
2022/12/29 07:06:30;;;;;;;6.33;5.30;;;6.70;99.90;6.20;99198;;;;570898;250;24115;-77
2022/12/29 07:08:58;;;;;;;5.97;5.27;;;6.60;99.90;6.20;99195;;;;570051;248;24100;-78
2022/12/29 07:11:25;;;;;;;10.47;6.63;;;6.70;99.90;6.20;99186;;;;571160;251;24140;-74
2022/12/29 07:13:53;;;;;;;9.40;5.00;;;6.70;99.90;6.20;99190;;;;553653;251;24177;-77
2022/12/29 07:16:21;;;;;;;6.80;5.27;;;6.70;99.90;6.30;99204;;;;595483;242;24045;-76
2022/12/29 07:18:49;;;;;;;7.20;5.33;;;6.70;99.90;6.30;99196;;;;582454;247;24064;-78
2022/12/29 07:21:20;;;;;;;7.90;5.20;;;6.80;99.90;6.30;99202;;;;583476;246;24101;-76
2022/12/29 07:23:45;;;;;;;6.57;5.17;;;6.80;99.90;6.30;99212;;;;572482;246;24107;-75
2022/12/29 07:26:13;;;;;;;6.53;4.50;;;6.80;99.90;6.30;99202;;;;577107;248;24082;-77
2022/12/29 07:28:42;;;;;;;9.60;5.20;;;6.80;99.90;6.40;99210;;;;586193;241;24068;-79
2022/12/29 07:31:16;;;;;;;5.33;4.83;;;6.80;99.90;6.40;99208;;;;583060;246;24100;-74
2022/12/29 07:33:43;;;;;;;8.13;5.10;;;6.80;99.90;6.40;99195;;;;565064;247;24155;-75
2022/12/29 07:36:15;;;;;;;5.97;4.10;;;6.90;99.90;6.40;99218;;;;593495;238;24070;-79
2022/12/29 07:38:40;;;;;;;5.73;4.17;;;6.80;99.90;6.40;99210;;;;593516;237;24027;-79
2022/12/29 07:41:08;;;;;;;8.47;5.67;;;6.90;99.90;6.50;99208;;;;566430;247;24140;-78
2022/12/29 07:43:39;;;;;;;7.07;4.87;;;6.90;99.90;6.50;99207;;;;572012;250;24153;-75
2022/12/29 07:46:07;;;;;;;7.27;5.00;;;6.90;99.90;6.50;99199;;;;569781;250;24125;-76
2022/12/29 07:48:35;;;;;;;5.23;4.70;;;7.00;99.90;6.50;99192;;;;562711;250;24126;-76
2022/12/29 07:51:00;;;;;;;5.73;5.10;;;7.00;99.90;6.60;99202;;;;571056;249;24137;-75
2022/12/29 07:53:27;;;;;;;5.63;5.10;;;7.00;99.90;6.60;99197;;;;571398;250;24085;-74
2022/12/29 07:55:58;;;;;;;8.50;4.77;;;7.00;99.90;6.60;99198;;;;571394;250;24104;-75
2022/12/29 07:58:26;;;;;;;6.27;5.00;;;7.00;99.90;6.60;99205;;;;563009;250;24147;-77
2022/12/29 08:00:55;;;;;;;7.47;5.77;;;7.10;99.90;6.60;99207;;;;574452;244;24131;-75
2022/12/29 08:03:26;;;;;;;6.67;5.03;;;7.10;99.90;6.70;99213;;;;574292;246;24463;-77
2022/12/29 08:05:54;;;;;;;6.13;4.90;;;7.10;99.90;6.70;99212;;;;582029;242;24101;-76
2022/12/29 08:08:23;;;;;;;9.23;5.23;;;7.10;99.90;6.70;99207;;;;562546;251;24156;-76
2022/12/29 08:10:47;;;;;;;6.20;5.37;;;7.20;99.90;6.80;99213;;;;582617;242;24070;-77
2022/12/29 08:13:15;;;;;;;7.30;5.67;;;7.20;99.90;6.90;99219;;;;588191;241;24109;-75
2022/12/29 08:15:44;;;;;;;7.57;5.07;;;7.40;99.90;6.90;99225;;;;569933;245;24141;-74
2022/12/29 08:18:12;;;;;;;7.10;5.43;;;7.30;99.90;7.00;99235;;;;587627;242;24100;-76
2022/12/29 08:20:40;;;;;;;6.20;4.97;;;7.40;99.90;7.00;99236;;;;587101;241;24054;-78
2022/12/29 08:23:08;;;;;;;7.63;5.00;;;7.40;99.90;7.00;99227;;;;567152;252;24125;-75
2022/12/29 08:25:36;;;;;;;6.73;5.13;;;7.40;99.90;7.00;99220;;;;578295;246;24082;-76
2022/12/29 08:28:08;;;;;;;8.77;4.83;;;7.50;99.90;7.00;99228;;;;575394;246;24080;-78
2022/12/29 08:30:32;;;;;;;6.97;4.83;;;7.50;99.90;7.00;99218;;;;594350;241;24092;-75
2022/12/29 08:33:00;;;;;;;4.90;4.40;;;7.50;99.90;7.10;99232;;;;594878;241;24079;-76
2022/12/29 08:35:28;;;;;;;5.77;5.07;;;7.50;99.90;7.10;99228;;;;584224;242;24072;-78
2022/12/29 08:37:56;;;;;;;7.27;6.07;;;7.50;99.90;7.10;99218;;;;579127;241;46045;-76
2022/12/29 08:40:24;;;;;;;5.87;5.37;;;7.50;99.90;7.10;99216;;;;594818;241;24136;-76
2022/12/29 08:42:52;;;;;;;4.87;4.47;;;7.50;99.90;7.10;99222;;;;595447;241;25120;-76
2022/12/29 08:45:19;;;;;;;7.33;4.80;;;7.50;99.90;7.10;99225;;;;571771;249;24104;-74
2022/12/29 08:47:47;;;;;;;5.37;4.50;;;7.50;99.90;7.10;99217;;;;580764;246;24086;-79
2022/12/29 08:50:15;;;;;;;4.77;4.27;;;7.50;99.90;7.10;99227;;;;574932;246;24086;-76
2022/12/29 08:52:43;;;;;;;5.43;4.80;;;7.50;99.90;7.10;99216;;;;583252;246;24145;-78
2022/12/29 08:55:11;;;;;;;8.50;5.00;;;7.60;99.90;7.20;99220;;;;584498;241;24085;-73
2022/12/29 08:57:42;;;;;;;7.40;5.13;;;7.60;99.90;7.20;99207;;;;584040;245;24099;-73
2022/12/29 09:00:11;;;;;;;7.47;4.90;;;7.60;99.90;7.20;99226;;;;573472;246;24480;-75
2022/12/29 09:02:35;;;;;;;5.70;5.10;;;7.60;99.90;7.30;99218;;;;581623;246;24108;-75
2022/12/29 09:05:03;;;;;;;6.23;4.77;;;7.70;99.90;7.30;99215;;;;577648;246;24078;-72
2022/12/29 09:07:35;;;;;;;7.53;5.27;;;7.80;99.90;7.30;99199;;;;579204;244;24102;-76
2022/12/29 09:09:59;;;;;;;5.53;5.03;;;7.70;99.90;7.30;99196;;;;578489;247;24121;-77
2022/12/29 09:12:28;;;;;;;5.13;4.30;;;7.80;99.90;7.40;99189;;;;578404;248;24078;-78
2022/12/29 09:14:56;;;;;;;6.47;4.93;;;7.80;99.90;7.40;99185;;;;578718;246;24117;-76
2022/12/29 09:20:13;;;;;;;5.63;4.90;;;7.90;99.90;7.60;99193;;;;582343;246;24079;-76
2022/12/29 09:22:38;;;;;;;9.57;5.27;;;8.00;99.90;7.60;99203;;;;572651;246;24146;-78
2022/12/29 09:25:06;;;;;;;7.67;5.33;;;8.00;99.90;7.70;99195;;;;570313;247;24130;-78
2022/12/29 09:27:34;;;;;;;7.87;5.60;;;8.10;99.90;7.70;99195;;;;592895;241;24092;-79
2022/12/29 09:30:05;;;;;;;7.60;5.60;;;8.20;99.90;7.80;99186;;;;594191;241;24047;-78
2022/12/29 09:32:30;;;;;;;6.37;4.97;;;8.20;99.90;7.80;99172;;;;581804;246;24104;-78
2022/12/29 09:34:58;;;;;;;6.13;5.33;;;8.30;99.90;7.90;99168;;;;583503;246;24080;-76
2022/12/29 09:37:26;;;;;;;6.93;5.10;;;8.30;99.90;8.00;99177;;;;578665;245;25134;-79
2022/12/29 09:39:54;;;;;;;7.33;3.97;;;8.40;99.90;8.00;99175;;;;562349;252;24119;-76
2022/12/29 09:42:43;;;;;;;7.63;5.23;;;8.50;99.90;8.10;99164;;;;584825;242;24007;-75
2022/12/29 09:45:26;;;;;;;6.27;4.47;;;8.60;99.90;8.10;99168;;;;588225;242;24061;-74
2022/12/29 09:47:54;;;;;;;4.53;4.13;;;8.60;99.90;8.20;99161;;;;582100;243;24067;-75
2022/12/29 09:50:25;;;;;;;4.93;4.43;;;8.60;99.90;8.20;99173;;;;595219;241;24109;-75
2022/12/29 09:53:29;;;;;;;8.20;4.53;;;8.60;99.90;8.30;99163;;;;592532;239;24076;-75
2022/12/29 09:55:57;;;;;;;4.50;4.10;;;8.70;99.90;8.30;99159;;;;560770;253;24137;-76
2022/12/29 09:58:31;;;;;;;4.10;3.70;;;8.70;99.90;8.40;99156;;;;589354;244;24055;-74
2022/12/29 10:01:04;;;;;;;5.00;4.13;;;8.80;99.90;8.40;99155;;;;582648;242;24077;-74
2022/12/29 10:03:41;;;;;;;5.47;4.27;;;8.80;99.90;8.50;99157;;;;587525;242;24056;-75
2022/12/29 10:06:27;;;;;;;6.03;4.27;;;8.90;99.90;8.40;99153;;;;576594;246;24092;-72
2022/12/29 10:08:58;;;;;;;5.17;4.30;;;8.90;99.90;8.40;99150;;;;592402;239;26337;-75
2022/12/29 10:11:34;;;;;;;5.00;4.30;;;8.90;99.90;8.50;99153;;;;581292;243;24081;-72
2022/12/29 10:14:19;;;;;;;6.93;4.60;;;8.90;99.90;8.50;99155;;;;582303;243;24125;-72
2022/12/29 10:16:59;;;;;;;5.60;3.97;;;8.90;99.90;8.50;99152;;;;584823;243;24118;-73
2022/12/29 10:19:45;;;;;;;5.63;3.93;;;9.00;99.90;8.60;99153;;;;582583;242;24050;-74
2022/12/29 10:22:43;;;;;;;5.67;4.00;;;8.90;99.90;8.60;99154;;;;580221;246;24153;-76
2022/12/29 10:25:19;;;;;;;4.07;3.67;;;9.00;99.90;8.70;99152;;;;559946;245;24173;-74
2022/12/29 10:27:50;;;;;;;4.60;3.57;;;9.00;99.90;8.70;99149;;;;574018;246;24088;-76
2022/12/29 10:30:18;;;;;;;4.63;3.40;;;9.10;99.90;8.80;99144;;;;574606;246;24113;-75
2022/12/29 10:32:57;;;;;;;5.57;4.27;;;9.20;99.90;8.90;99143;;;;564394;250;24132;-75
2022/12/29 10:35:38;;;;;;;4.77;3.90;;;9.30;99.90;9.00;99147;;;;590780;241;24077;-74
2022/12/29 10:38:19;;;;;;;4.27;3.87;;;9.40;99.90;9.20;99140;;;;566678;243;24021;-76
2022/12/29 10:41:17;;;;;;;5.47;4.30;;;9.60;99.90;9.30;99134;;;;573652;250;24027;-75
2022/12/29 10:43:52;;;;;;;5.50;3.87;;;9.80;99.90;9.40;99127;;;;592197;242;24058;-77
2022/12/29 10:46:20;;;;;;;6.40;3.97;;;9.80;99.90;9.30;99121;;;;586403;243;24077;-78
2022/12/29 10:48:48;;;;;;;4.57;3.17;;;9.70;99.90;9.30;99124;;;;581094;242;24080;-76
2022/12/29 10:51:31;;;;;;;5.07;4.00;;;9.70;99.90;9.20;99129;;;;583816;237;24014;-78
2022/12/29 10:54:05;;;;;;;4.63;4.00;;;9.70;99.90;9.30;99124;;;;589398;237;24093;-80
2022/12/29 10:56:39;;;;;;;7.67;3.67;;;9.70;99.90;9.30;99122;;;;594226;237;24115;-79
2022/12/29 10:59:22;;;;;;;4.30;3.90;;;9.70;99.90;9.40;99117;;;;594170;237;24109;-77
2022/12/29 11:02:07;;;;;;;3.40;3.10;;;9.80;99.90;9.40;99114;;;;595065;237;24105;-74
2022/12/29 11:05:11;;;;;;;4.57;3.70;;;9.80;99.90;9.40;99130;;;;599053;238;24030;-76
2022/12/29 11:07:42;;;;;;;4.67;4.13;;;9.80;99.90;9.40;99127;;;;595334;238;25252;-76
2022/12/29 11:10:38;;;;;;;3.93;3.63;;;9.80;99.90;9.40;99130;;;;596522;240;24115;-77
2022/12/29 11:13:05;;;;;;;4.60;4.03;;;9.80;99.90;9.40;99116;;;;595456;240;24061;-77
2022/12/29 11:15:39;;;;;;;3.90;3.10;;;9.80;99.90;9.40;99110;;;;572751;246;24138;-75
2022/12/29 11:18:08;;;;;;;5.23;3.70;;;9.80;99.90;9.40;99103;;;;573642;246;24153;-74
2022/12/29 11:20:38;;;;;;;4.30;3.20;;;9.80;99.90;9.40;99100;;;;586559;240;24070;-75
2022/12/29 11:23:06;;;;;;;4.83;3.77;;;9.80;99.90;9.40;99101;;;;592282;241;24106;-75
2022/12/29 11:25:34;;;;;;;7.40;4.10;;;9.80;99.90;9.50;99107;;;;584298;241;24111;-74
2022/12/29 11:28:02;;;;;;;8.47;3.73;;;9.90;99.90;9.60;99103;;;;584333;246;24100;-76
2022/12/29 11:30:30;;;;;;;3.77;3.40;;;10.10;99.90;9.70;99110;;;;572647;251;24113;-74
2022/12/29 11:33:02;;;;;;;4.23;3.47;;;10.00;99.90;9.80;99112;;;;583505;246;24088;-76
2022/12/29 11:35:44;;;;;;;3.20;2.97;;;10.10;99.90;9.80;99102;;;;585742;241;24078;-74
2022/12/29 11:38:24;;;;;;;4.33;3.80;;;10.20;99.90;9.80;99105;;;;586988;240;24050;-77
2022/12/29 11:40:52;;;;;;;4.68;4.25;;;10.20;99.90;9.80;99105;;;;579371;241;35106;-76
2022/12/29 11:43:22;;;;;;;5.50;3.60;;;10.20;99.90;9.70;99107;;;;585541;242;24116;-74
2022/12/29 11:45:50;;;;;;;5.43;3.63;;;10.00;99.90;9.60;99112;;;;565517;252;24109;-75
2022/12/29 11:48:18;;;;;;;4.53;4.00;;;10.00;99.90;9.50;99106;;;;584575;241;24045;-78
2022/12/29 11:50:49;;;;;;;6.90;4.17;;;10.00;99.90;9.50;99104;;;;583740;241;24065;-73
2022/12/29 11:53:32;;;;;;;5.10;3.83;;;9.90;99.90;9.40;99098;;;;582922;241;24084;-76
2022/12/29 11:56:00;;;;;;;3.70;3.30;;;9.80;99.90;9.40;99089;;;;570118;249;24109;-76
2022/12/29 11:58:32;;;;;;;4.20;3.90;;;9.80;99.90;9.30;99098;;;;574287;246;24090;-73
2022/12/29 12:01:07;;;;;;;4.57;3.90;;;9.70;99.90;9.30;99088;;;;585247;241;24157;-77
2022/12/29 12:03:35;;;;;;;4.83;4.27;;;9.70;99.90;9.30;99090;;;;581914;241;24075;-74
2022/12/29 12:06:07;;;;;;;5.03;4.53;;;9.70;99.90;9.30;99096;;;;586289;241;24060;-76
2022/12/29 12:08:37;;;;;;;4.63;4.10;;;9.70;99.90;9.30;99093;;;;563518;248;24122;-73
2022/12/29 12:11:11;;;;;;;3.50;3.20;;;9.70;99.90;9.20;99102;;;;581169;242;24113;-74
2022/12/29 12:14:01;;;;;;;4.53;3.83;;;9.60;99.90;9.20;99099;;;;582940;242;24081;-75
2022/12/29 12:16:32;;;;;;;8.97;3.87;;;9.60;99.90;9.20;99097;;;;590364;240;24060;-76
2022/12/29 12:19:24;;;;;;;5.77;3.60;;;9.50;99.90;9.10;99103;;;;582670;241;24063;-74
2022/12/29 12:21:49;;;;;;;4.30;3.70;;;9.50;99.90;9.10;99108;;;;589063;241;24066;-74
2022/12/29 12:24:23;;;;;;;3.33;3.03;;;9.50;99.90;9.10;99097;;;;577082;245;24137;-74
2022/12/29 12:27:02;;;;;;;4.80;3.93;;;9.50;99.90;9.10;99111;;;;564274;250;24110;-74
2022/12/29 12:29:33;;;;;;;4.60;4.07;;;9.50;99.90;9.00;99109;;;;583122;246;24083;-74
2022/12/29 12:32:03;;;;;;;6.27;3.60;;;9.40;99.90;9.00;99108;;;;575573;245;24098;-74
2022/12/29 12:34:37;;;;;;;6.30;3.87;;;9.40;99.90;9.00;99107;;;;574687;245;24121;-75
2022/12/29 12:37:13;;;;;;;6.23;4.17;;;9.40;99.90;9.00;99100;;;;573000;246;24116;-74
2022/12/29 12:40:02;;;;;;;3.43;3.17;;;9.30;99.90;9.00;99107;;;;586876;245;24068;-75